createdAt,value
2023-03-22T00:00:24.376Z,5.63
2023-03-22T00:02:51.309Z,5.53
2023-03-22T00:05:17.994Z,5.50
2023-03-22T00:07:44.603Z,5.57
2023-03-22T00:10:16.487Z,5.45
2023-03-22T00:12:42.974Z,5.38
2023-03-22T00:15:11.152Z,5.28
2023-03-22T00:17:38.280Z,5.20
2023-03-22T00:20:06.423Z,5.20
2023-03-22T00:22:33.096Z,5.12
2023-03-22T00:24:59.508Z,4.99
2023-03-22T00:27:26.121Z,4.89
2023-03-22T00:29:52.804Z,4.94
2023-03-22T00:32:19.459Z,4.85
2023-03-22T00:34:48.979Z,4.72
2023-03-22T00:37:22.036Z,4.64
2023-03-22T00:39:48.634Z,4.60
2023-03-22T00:42:20.141Z,4.48
2023-03-22T00:44:46.756Z,4.49
2023-03-22T00:47:14.137Z,4.49
2023-03-22T00:49:41.276Z,4.42
2023-03-22T00:52:10.752Z,4.57
2023-03-22T00:54:37.380Z,4.58
2023-03-22T00:57:04.114Z,4.66
2023-03-22T00:59:30.808Z,4.73
2023-03-22T01:01:59.048Z,4.80
2023-03-22T01:04:26.357Z,4.82
2023-03-22T01:07:03.560Z,4.74
2023-03-22T01:09:35.513Z,4.62
2023-03-22T01:12:02.446Z,4.53
2023-03-22T01:14:31.821Z,4.47
2023-03-22T01:16:58.548Z,4.35
2023-03-22T01:19:27.538Z,4.35
2023-03-22T01:21:57.790Z,4.36
2023-03-22T01:24:32.248Z,4.43
2023-03-22T01:26:58.800Z,4.43
2023-03-22T01:29:25.979Z,4.39
2023-03-22T01:31:53.180Z,4.37
2023-03-22T01:34:22.334Z,4.40
2023-03-22T01:36:50.509Z,4.30
2023-03-22T01:39:17.219Z,4.27
2023-03-22T01:41:45.886Z,4.19
2023-03-22T01:44:12.865Z,4.17
2023-03-22T01:46:40.078Z,4.15
2023-03-22T01:49:09.097Z,4.04
2023-03-22T01:51:38.832Z,3.99
2023-03-22T01:54:09.423Z,3.85
2023-03-22T01:56:39.871Z,3.87
2023-03-22T01:59:09.980Z,3.86
2023-03-22T02:01:37.429Z,3.89
2023-03-22T02:04:14.066Z,3.88
2023-03-22T02:06:41.040Z,3.90
2023-03-22T02:09:11.198Z,3.72
2023-03-22T02:11:41.662Z,3.59
2023-03-22T02:14:10.934Z,3.58
2023-03-22T02:16:37.454Z,3.66
2023-03-22T02:19:03.961Z,3.70
2023-03-22T02:22:10.848Z,3.68
2023-03-22T02:24:55.708Z,3.56
2023-03-22T02:27:28.248Z,3.53
2023-03-22T02:30:11.225Z,3.52
2023-03-22T02:32:59.039Z,3.53
2023-03-22T02:35:43.710Z,3.53
2023-03-22T02:38:16.366Z,3.41
2023-03-22T02:40:42.825Z,3.30
2023-03-22T02:43:38.559Z,3.30
2023-03-22T02:46:24.736Z,3.36
2023-03-22T02:49:09.339Z,3.41
2023-03-22T02:51:47.279Z,3.38
2023-03-22T02:54:23.887Z,3.28
2023-03-22T02:57:03.103Z,3.29
2023-03-22T02:59:32.147Z,3.29
2023-03-22T03:02:03.840Z,3.28
2023-03-22T03:04:41.179Z,3.31
2023-03-22T03:07:11.988Z,3.31
2023-03-22T03:09:41.857Z,3.37
2023-03-22T03:12:19.725Z,3.51
2023-03-22T03:14:46.424Z,3.53
2023-03-22T03:17:27.962Z,3.56
2023-03-22T03:20:08.618Z,3.69
2023-03-22T03:22:35.235Z,3.72
2023-03-22T03:25:18.893Z,3.61
2023-03-22T03:28:06.695Z,3.68
2023-03-22T03:30:50.414Z,3.78
2023-03-22T03:33:20.753Z,3.80
2023-03-22T03:35:57.000Z,3.89
2023-03-22T03:38:28.608Z,3.92
2023-03-22T03:41:03.288Z,3.92
2023-03-22T03:43:40.530Z,3.97
2023-03-22T03:46:08.629Z,4.04
2023-03-22T03:48:37.644Z,4.02
2023-03-22T03:51:07.140Z,4.03
2023-03-22T03:53:33.833Z,3.95
2023-03-22T03:56:00.437Z,3.92
2023-03-22T03:58:27.119Z,3.85
2023-03-22T04:00:55.711Z,3.82
2023-03-22T04:03:24.168Z,3.77
2023-03-22T04:05:50.885Z,3.71
2023-03-22T04:08:20.489Z,3.73
2023-03-22T04:10:53.026Z,3.71
2023-03-22T04:13:24.985Z,3.72
2023-03-22T04:16:00.304Z,3.74
2023-03-22T04:18:32.753Z,3.64
2023-03-22T04:21:03.461Z,3.70
2023-03-22T04:23:36.220Z,3.69
2023-03-22T04:26:03.852Z,3.65
2023-03-22T04:28:33.922Z,3.65
2023-03-22T04:31:06.206Z,3.69
2023-03-22T04:33:39.525Z,3.71
2023-03-22T04:36:12.346Z,3.68
2023-03-22T04:38:44.216Z,3.73
2023-03-22T04:41:11.161Z,3.78
2023-03-22T04:43:39.397Z,3.78
2023-03-22T04:46:10.172Z,3.80
2023-03-22T04:48:40.862Z,3.75
2023-03-22T04:51:09.965Z,3.87
2023-03-22T04:53:40.020Z,3.96
2023-03-22T04:56:14.003Z,3.98
2023-03-22T04:58:44.629Z,3.94
2023-03-22T05:01:13.334Z,3.99
2023-03-22T05:03:41.594Z,4.01
2023-03-22T05:06:11.805Z,4.01
2023-03-22T05:08:38.638Z,3.96
2023-03-22T05:11:20.117Z,3.97
2023-03-22T05:13:46.804Z,4.06
2023-03-22T05:16:13.467Z,4.12
2023-03-22T05:18:45.713Z,4.24
2023-03-22T05:21:15.614Z,4.19
2023-03-22T05:23:43.540Z,4.31
2023-03-22T05:26:15.696Z,4.44
2023-03-22T05:28:44.428Z,4.49
2023-03-22T05:31:11.924Z,4.57
2023-03-22T05:33:41.880Z,4.66
2023-03-22T05:36:11.705Z,4.80
2023-03-22T05:38:41.311Z,4.88
2023-03-22T05:41:08.174Z,4.97
2023-03-22T05:43:34.893Z,5.02
2023-03-22T05:46:05.841Z,5.03
2023-03-22T05:48:32.414Z,5.04
2023-03-22T05:51:01.959Z,5.08
2023-03-22T05:53:28.642Z,5.09
2023-03-22T05:55:57.725Z,5.13
2023-03-22T05:58:25.148Z,5.25
2023-03-22T06:00:53.155Z,5.36
2023-03-22T06:03:19.911Z,5.44
2023-03-22T06:05:50.915Z,5.45
2023-03-22T06:08:17.548Z,5.54
2023-03-22T06:10:44.136Z,5.61
2023-03-22T06:13:10.924Z,5.72
2023-03-22T06:15:40.710Z,5.84
2023-03-22T06:18:07.440Z,5.93
2023-03-22T06:20:37.148Z,6.03
2023-03-22T06:23:03.910Z,6.08
2023-03-22T06:25:30.700Z,6.20
2023-03-22T06:27:59.871Z,6.23
2023-03-22T06:30:26.643Z,6.26
2023-03-22T06:32:53.388Z,6.32
2023-03-22T06:35:20.491Z,6.33
2023-03-22T06:37:47.370Z,6.31
2023-03-22T06:40:16.858Z,6.33
2023-03-22T06:42:47.908Z,6.30
2023-03-22T06:45:16.509Z,6.21
2023-03-22T06:47:48.682Z,6.25
2023-03-22T06:50:16.055Z,6.36
2023-03-22T06:52:42.684Z,6.50
2023-03-22T06:55:15.876Z,6.61
2023-03-22T06:57:42.541Z,6.73
2023-03-22T07:00:12.827Z,6.76
2023-03-22T07:02:50.350Z,6.84
2023-03-22T07:05:22.264Z,6.84
2023-03-22T07:07:48.896Z,6.83
2023-03-22T07:10:15.552Z,6.80
2023-03-22T07:12:42.231Z,6.83
2023-03-22T07:15:09.177Z,6.90
2023-03-22T07:17:35.776Z,6.88
2023-03-22T07:20:03.553Z,6.94
2023-03-22T07:22:32.600Z,7.06
2023-03-22T07:25:01.598Z,7.07
2023-03-22T07:27:28.372Z,7.07
2023-03-22T07:29:55.170Z,7.15
2023-03-22T07:32:24.215Z,7.18
2023-03-22T07:34:51.099Z,7.25
2023-03-22T07:37:17.648Z,7.32
2023-03-22T07:39:44.120Z,7.35
2023-03-22T07:42:10.755Z,7.59
2023-03-22T07:44:37.352Z,7.70
2023-03-22T07:47:04.098Z,7.82
2023-03-22T07:49:31.407Z,7.76
2023-03-22T07:51:57.951Z,7.77
2023-03-22T07:54:33.392Z,7.69
2023-03-22T07:57:01.247Z,7.62
2023-03-22T07:59:34.201Z,7.62
2023-03-22T08:02:06.356Z,7.67
2023-03-22T08:04:36.360Z,7.86
2023-03-22T08:07:05.916Z,7.73
2023-03-22T08:09:33.219Z,7.75
2023-03-22T08:11:59.718Z,7.89
2023-03-22T08:14:35.866Z,8.04
2023-03-22T08:17:04.272Z,7.89
2023-03-22T08:19:32.030Z,7.88
2023-03-22T08:21:59.734Z,7.79
2023-03-22T08:24:32.115Z,7.73
2023-03-22T08:26:58.627Z,7.82
2023-03-22T08:29:25.540Z,7.98
2023-03-22T08:31:55.748Z,7.93
2023-03-22T08:34:22.406Z,7.92
2023-03-22T08:36:54.930Z,7.99
2023-03-22T08:39:24.794Z,8.27
2023-03-22T08:41:55.515Z,8.30
2023-03-22T08:44:22.104Z,8.33
2023-03-22T08:46:48.645Z,8.59
2023-03-22T08:49:18.266Z,8.75
2023-03-22T08:51:44.985Z,8.80
2023-03-22T08:54:11.899Z,9.01
2023-03-22T08:56:38.467Z,9.12
2023-03-22T08:59:07.598Z,9.25
2023-03-22T09:01:34.621Z,9.43
2023-03-22T09:04:01.292Z,9.48
2023-03-22T09:06:27.958Z,9.59
2023-03-22T09:09:00.132Z,9.80
2023-03-22T09:11:29.062Z,9.85
2023-03-22T09:13:55.941Z,9.94
2023-03-22T09:16:25.704Z,10.27
2023-03-22T09:18:52.272Z,10.35
2023-03-22T09:21:19.768Z,10.58
2023-03-22T09:23:49.333Z,10.77
2023-03-22T09:26:20.403Z,10.75
2023-03-22T09:28:50.204Z,10.63
2023-03-22T09:31:24.320Z,10.71
2023-03-22T09:33:51.116Z,10.84
2023-03-22T09:36:19.679Z,11.08
2023-03-22T09:38:47.818Z,11.12
2023-03-22T09:41:21.424Z,10.86
2023-03-22T09:43:52.909Z,10.94
2023-03-22T09:46:30.018Z,11.20
2023-03-22T09:49:03.052Z,10.84
2023-03-22T09:51:36.236Z,11.21
2023-03-22T09:54:08.812Z,11.33
2023-03-22T09:56:39.645Z,11.34
2023-03-22T09:59:17.598Z,11.56
2023-03-22T10:01:57.785Z,11.83
2023-03-22T10:04:36.840Z,11.74
2023-03-22T10:07:15.156Z,11.68
2023-03-22T10:09:56.324Z,12.07
2023-03-22T10:12:34.133Z,12.18
2023-03-22T10:15:20.394Z,11.94
2023-03-22T10:18:03.389Z,11.92
2023-03-22T10:20:47.515Z,12.43
2023-03-22T10:23:28.338Z,12.62
2023-03-22T10:25:58.998Z,12.80
2023-03-22T10:28:38.209Z,12.61
2023-03-22T10:31:06.522Z,12.64
2023-03-22T10:33:58.428Z,12.76
2023-03-22T10:36:31.357Z,12.68
2023-03-22T10:39:25.748Z,12.53
2023-03-22T10:41:57.829Z,12.46
2023-03-22T10:44:27.715Z,12.35
2023-03-22T10:47:02.555Z,12.73
2023-03-22T10:49:34.298Z,12.32
2023-03-22T10:52:21.265Z,12.52
2023-03-22T10:54:48.039Z,12.74
2023-03-22T10:57:14.681Z,12.75
2023-03-22T11:00:00.411Z,12.70
2023-03-22T11:02:32.758Z,13.01
2023-03-22T11:05:05.076Z,13.04
2023-03-22T11:07:48.132Z,13.10
2023-03-22T11:10:27.684Z,13.36
2023-03-22T11:12:56.307Z,13.85
2023-03-22T11:15:32.574Z,13.85
2023-03-22T11:18:05.453Z,13.56
2023-03-22T11:20:43.023Z,13.56
2023-03-22T11:23:18.093Z,13.44
2023-03-22T11:25:50.596Z,13.65
2023-03-22T11:28:22.131Z,13.82
2023-03-22T11:31:14.010Z,13.80
2023-03-22T11:34:06.914Z,13.93
2023-03-22T11:36:42.505Z,14.28
2023-03-22T11:39:09.165Z,14.52
2023-03-22T11:41:37.676Z,14.12
2023-03-22T11:44:17.577Z,13.71
2023-03-22T11:46:55.252Z,13.77
2023-03-22T11:49:28.312Z,14.16
2023-03-22T11:51:58.861Z,14.48
2023-03-22T11:54:32.015Z,14.77
2023-03-22T11:57:05.866Z,14.31
2023-03-22T11:59:58.107Z,14.11
2023-03-22T12:02:27.875Z,14.38
2023-03-22T12:05:07.662Z,14.38
2023-03-22T12:07:38.507Z,14.20
2023-03-22T12:10:19.559Z,14.01
2023-03-22T12:13:04.683Z,14.22
2023-03-22T12:16:03.025Z,14.08
2023-03-22T12:18:40.556Z,13.76
2023-03-22T12:21:10.582Z,13.83
2023-03-22T12:23:46.438Z,13.99
2023-03-22T12:26:21.917Z,14.20
2023-03-22T12:28:56.424Z,13.89
2023-03-22T12:31:46.460Z,14.20
2023-03-22T12:34:19.825Z,13.99
2023-03-22T12:36:57.529Z,13.89
2023-03-22T12:39:40.915Z,14.04
2023-03-22T12:42:18.931Z,13.95
2023-03-22T12:45:02.224Z,14.09
2023-03-22T12:47:46.968Z,14.44
2023-03-22T12:50:45.995Z,13.99
2023-03-22T12:53:19.624Z,14.33
2023-03-22T12:55:51.622Z,13.96
2023-03-22T12:58:30.630Z,13.70
2023-03-22T13:01:07.799Z,13.66
2023-03-22T13:03:48.661Z,14.22
2023-03-22T13:06:55.452Z,14.04
2023-03-22T13:09:51.695Z,14.46
2023-03-22T13:12:23.790Z,14.72
2023-03-22T13:14:54.212Z,14.56
2023-03-22T13:17:23.931Z,14.52
2023-03-22T13:20:06.662Z,14.64
2023-03-22T13:22:37.023Z,14.55
2023-03-22T13:25:11.952Z,14.61
2023-03-22T13:27:42.087Z,14.94
2023-03-22T13:30:26.247Z,14.99
2023-03-22T13:32:57.144Z,15.02
2023-03-22T13:35:37.811Z,15.18
2023-03-22T13:38:12.934Z,14.86
2023-03-22T13:40:49.933Z,14.83
2023-03-22T13:43:33.475Z,15.54
2023-03-22T13:46:10.583Z,15.50
2023-03-22T13:49:02.260Z,15.59
2023-03-22T13:51:32.752Z,14.83
2023-03-22T13:54:13.251Z,14.38
2023-03-22T13:56:56.406Z,14.32
2023-03-22T13:59:29.954Z,14.25
2023-03-22T14:02:05.472Z,14.34
2023-03-22T14:04:49.733Z,14.34
2023-03-22T14:07:44.381Z,14.29
2023-03-22T14:10:26.239Z,14.06
2023-03-22T14:13:03.914Z,14.22
2023-03-22T14:15:39.238Z,14.26
2023-03-22T14:18:30.574Z,14.21
2023-03-22T14:21:34.484Z,14.22
